Nearby METAR Reports

 

KW29 - Stevensville, Maryland, USA
Distance from station: SSW 13mi, 21km
Updated: Sat, 19-Oct-2019 8:40pm EDT
Clear
Clear
 Wind from SSE
Wind: SSE 6 mph , 9 km/h
Temperature: 57°F , 14°C
Dew Point: 48°F , 9°C
Humidity: 72%
Barometer: 30.03 inHg , 1016.9 hPa
Clouds: Clear
Visibility: 10 miles , 16 km
2019/10/20 00:40 KW29 200040Z AUTO 16005KT 10SM CLR 14/09 A3003 RMK AO2
KMTN - Baltimore/Martin, Maryland, USA
Distance from station: NW 13mi, 22km
Updated: Sat, 19-Oct-2019 7:58pm EDT
Clear
Clear
 Wind from calm
Wind: Calm
Temperature: 55°F , 13°C
Dew Point: 50°F , 10°C
Humidity: 82%
Barometer: 30.05 inHg , 1017.6 hPa
Clouds: Clear
Visibility: 10 miles , 16 km
2019/10/19 23:58 KMTN 192358Z 00000KT 10SM SKC 13/10 A3005
 
KNAK - Annapolis/Naval, Maryland, USA
Distance from station: SW 18mi, 28km
Updated: Sat, 19-Oct-2019 7:54pm EDT
Clear
Clear
 Wind from SSE
Wind: SSE 3 mph , 6 km/h
Temperature: 59°F , 15°C
Dew Point: 48°F , 9°C
Humidity: 68%
Barometer: 30.03 inHg , 1016.9 hPa
Clouds: Clear
Visibility: 10 miles , 16 km
2019/10/19 23:54 KNAK 192354Z AUTO 16003KT 10SM CLR 15/09 A3003 RMK AO2 SLP171 T01500094 10161 20139 55002
KAPG - Aberdeen/Phillip, Maryland, USA
Distance from station: NNE 21mi, 34km
Updated: Sat, 19-Oct-2019 12:52pm EDT
NOT Current
Mostly cloudy
Mostly cloudy
 Wind from SSW
Wind: SSW 9 mph , 15 km/h
Temperature: 61°F , 16°C
Dew Point: 41°F , 5°C
Humidity: 48%
Barometer: 30.10 inHg , 1019.3 hPa
Clouds: Mostly cloudy
Visibility: 8 miles , 13 km
Cloud details: Mostly cloudy 10000 ft
2019/10/19 16:52 KAPG 191652Z 20008KT 8SM BKN100 16/05 A3010 RMK SLP196
 
KDMH - Baltimore/Dwntwn, Maryland, USA
Distance from station: WNW 21mi, 34km
Updated: Sat, 19-Oct-2019 7:54pm EDT

 
Temperature: 57°F , 14°C
Dew Point: 46°F , 8°C
Humidity: 67%
Barometer: 30.03 inHg , 1016.9 hPa
2019/10/19 23:54 KDMH 192354Z AUTO 14/08 A3003 RMK AO1 SLP169 T01440083 10178 20144 55001
KBWI - Balto/Wash Intl, Maryland, USA
Distance from station: W 23mi, 37km
Updated: Sat, 19-Oct-2019 7:54pm EDT
Mostly cloudy
Mostly cloudy
 Wind from SSE
Wind: SSE 3 mph , 6 km/h
Temperature: 57°F , 14°C
Dew Point: 46°F , 8°C
Humidity: 67%
Barometer: 30.03 inHg , 1016.9 hPa
Clouds: Mostly cloudy
Visibility: 10 miles , 16 km
Cloud details: Partly cloudy 15000 ft
Mostly cloudy 20000 ft
Mostly cloudy 25000 ft
2019/10/19 23:54 KBWI 192354Z 15003KT 10SM SCT150 BKN200 BKN250 14/08 A3003 RMK AO2 SLP168 T01390083 10189 20139 53001
 
KESN - Easton/Newnam, Maryland, USA
Distance from station: SSE 27mi, 44km
Updated: Sat, 19-Oct-2019 8:50pm EDT
Clear
Clear
 Wind from ESE
Wind: ESE 3 mph , 6 km/h
Temperature: 55°F , 13°C
Dew Point: 43°F , 6°C
Humidity: 63%
Barometer: 30.07 inHg , 1018.3 hPa
Clouds: Clear
Visibility: 10 miles , 16 km
2019/10/20 00:50 KESN 200050Z 12003KT 10SM SKC 13/06 A3007
KFME - Fort Meade, Maryland, USA
Distance from station: WSW 28mi, 45km
Updated: Sat, 19-Oct-2019 8:42pm EDT
Clear
Clear
 Wind from calm
Wind: Calm
Temperature: 48°F , 9°C
Dew Point: 45°F , 7°C
Humidity: 87%
Barometer: 30.05 inHg , 1017.6 hPa
Clouds: Clear
Visibility: 10 miles , 16 km
2019/10/20 00:42 KFME 200042Z AUTO 00000KT 10SM CLR 09/07 A3005 RMK AO1
 
KCGS - College Park, Maryland, USA
Distance from station: WSW 38mi, 61km
Updated: Sat, 19-Oct-2019 8:43pm EDT
Clear
Clear
 Wind from calm
Wind: Calm
Temperature: 52°F , 11°C
Dew Point: 43°F , 6°C
Humidity: 72%
Barometer: 30.02 inHg , 1016.6 hPa
Clouds: Clear
Visibility: 10 miles , 16 km
2019/10/20 00:43 KCGS 200043Z AUTO 00000KT 10SM CLR 11/06 A3002 RMK AO1 T01100060
KADW - Andrews Afb, Maryland, USA
Distance from station: SW 41mi, 66km
Updated: Sat, 19-Oct-2019 7:56pm EDT
Clear
Clear
 Wind from calm
Wind: Calm
Temperature: 55°F , 13°C
Dew Point: 45°F , 7°C
Humidity: 67%
Barometer: 30.02 inHg , 1016.6 hPa
Clouds: Clear
Visibility: 10 miles , 16 km
2019/10/19 23:56 KADW 192356Z AUTO 00000KT 10SM CLR 13/07 A3002 RMK AO2 SLP174 T01250074 10183 20122 55003 $
 
KDOV - Dover Afb, Delaware, USA
Distance from station: E 42mi, 68km
Updated: Sat, 19-Oct-2019 7:56pm EDT
Clear
Clear
 Wind from calm
Wind: Calm
Temperature: 54°F , 12°C
Dew Point: 46°F , 8°C
Humidity: 77%
Barometer: 30.04 inHg , 1017.3 hPa
Clouds: Clear
Visibility: 10 miles , 16 km
2019/10/19 23:56 KDOV 192356Z 00000KT 10SM CLR 12/08 A3004 RMK AO2A SLP176 T01190080 10173 20117 58000 $
KCGE - Cambridge-Dorch, Maryland, USA
Distance from station: SSE 45mi, 73km
Updated: Sat, 19-Oct-2019 8:40pm EDT
Clear
Clear
 Wind from calm
Wind: Calm
Temperature: 50°F , 10°C
Dew Point: 45°F , 7°C
Humidity: 82%
Barometer: 30.03 inHg , 1016.9 hPa
Clouds: Clear
Visibility: 10 miles , 16 km
2019/10/20 00:40 KCGE 200040Z AUTO 00000KT 10SM CLR 10/07 A3003 RMK A01
 
KDCA - Washington/Natl, Washington D.c., USA
Distance from station: WSW 47mi, 76km
Updated: Sat, 19-Oct-2019 7:52pm EDT
Overcast
Overcast
 Wind from SSE
Wind: SSE 5 mph , 7 km/h
Temperature: 61°F , 16°C
Dew Point: 45°F , 7°C
Humidity: 55%
Barometer: 30.03 inHg , 1016.9 hPa
Clouds: Overcast
Visibility: 10 miles , 16 km
Cloud details: Overcast 23000 ft
2019/10/19 23:52 KDCA 192352Z 15004KT 10SM OVC230 16/07 A3003 RMK AO2 SLP169 T01560072 10183 20150 55003 $
KGAI - Gaithersburg, Maryland, USA
Distance from station: W 49mi, 78km
Updated: Sat, 19-Oct-2019 7:56pm EDT
Clear
Clear
 Wind from SE
Wind: SE 3 mph , 6 km/h
Temperature: 52°F , 11°C
Dew Point: 45°F , 7°C
Humidity: 77%
Barometer: 30.03 inHg , 1016.9 hPa
Clouds: Clear
Visibility: 10 miles , 16 km
2019/10/19 23:56 KGAI 192356Z AUTO 13003KT 10SM CLR 11/07 A3003 RMK AO2 SLP185 60001 T01110067 10178 20111 55002
 
KILG - Wilmington, Delaware, USA
Distance from station: NE 49mi, 79km
Updated: Sat, 19-Oct-2019 7:51pm EDT
Clear
Clear
 Wind from SSW
Wind: SSW 6 mph , 9 km/h
Temperature: 55°F , 13°C
Dew Point: 48°F , 9°C
Humidity: 77%
Barometer: 30.05 inHg , 1017.6 hPa
Clouds: Clear
Visibility: 10 miles , 16 km
2019/10/19 23:51 KILG 192351Z 20005KT 10SM CLR 13/09 A3005 RMK AO2 SLP176 T01280089 10178 20128 53004
KDMW - Carroll Cnty, Maryland, USA
Distance from station: NW 50mi, 80km
Updated: Sat, 19-Oct-2019 8:40pm EDT
Clear
Clear
 Wind from calm
Wind: Calm
Temperature: 54°F , 12°C
Dew Point: 45°F , 7°C
Humidity: 72%
Barometer: 30.02 inHg , 1016.6 hPa
Clouds: Clear
Visibility: 10 miles , 16 km
2019/10/20 00:40 KDMW 200040Z AUTO 00000KT 10SM CLR 12/07 A3002 RMK AO2